sensor_id;sensor_type;location;lat;lon;timestamp;P1;durP1;ratioP1;P2;durP2;ratioP2
55465;SDS011;41329;41.594;23.810;2024-03-23T00:54:16;5.70;;;5.30;;
55465;SDS011;41329;41.594;23.810;2024-03-23T00:56:42;5.20;;;4.80;;
55465;SDS011;41329;41.594;23.810;2024-03-23T00:59:07;6.67;;;5.23;;
55465;SDS011;41329;41.594;23.810;2024-03-23T01:01:32;5.53;;;5.03;;
55465;SDS011;41329;41.594;23.810;2024-03-23T01:03:58;5.50;;;5.00;;
55465;SDS011;41329;41.594;23.810;2024-03-23T01:06:24;5.17;;;4.77;;
55465;SDS011;41329;41.594;23.810;2024-03-23T01:08:49;5.43;;;5.03;;
55465;SDS011;41329;41.594;23.810;2024-03-23T01:11:15;5.33;;;4.83;;
55465;SDS011;41329;41.594;23.810;2024-03-23T01:13:40;5.33;;;4.93;;
55465;SDS011;41329;41.594;23.810;2024-03-23T01:16:05;7.73;;;6.13;;
55465;SDS011;41329;41.594;23.810;2024-03-23T01:18:31;7.27;;;6.57;;
55465;SDS011;41329;41.594;23.810;2024-03-23T01:20:58;8.37;;;7.63;;
55465;SDS011;41329;41.594;23.810;2024-03-23T01:23:23;8.70;;;7.80;;
55465;SDS011;41329;41.594;23.810;2024-03-23T01:25:52;11.63;;;9.17;;
55465;SDS011;41329;41.594;23.810;2024-03-23T01:28:18;10.35;;;9.40;;
55465;SDS011;41329;41.594;23.810;2024-03-23T01:30:44;15.37;;;13.93;;
55465;SDS011;41329;41.594;23.810;2024-03-23T01:33:10;15.57;;;13.87;;
55465;SDS011;41329;41.594;23.810;2024-03-23T01:35:35;20.73;;;16.17;;
55465;SDS011;41329;41.594;23.810;2024-03-23T01:38:00;27.50;;;19.57;;
55465;SDS011;41329;41.594;23.810;2024-03-23T01:40:26;22.33;;;16.90;;
55465;SDS011;41329;41.594;23.810;2024-03-23T01:42:58;16.53;;;14.83;;
55465;SDS011;41329;41.594;23.810;2024-03-23T01:45:28;12.20;;;10.87;;
55465;SDS011;41329;41.594;23.810;2024-03-23T01:47:55;10.67;;;9.77;;
55465;SDS011;41329;41.594;23.810;2024-03-23T01:50:20;10.20;;;9.20;;
55465;SDS011;41329;41.594;23.810;2024-03-23T01:52:46;10.23;;;7.40;;
55465;SDS011;41329;41.594;23.810;2024-03-23T01:55:13;7.70;;;7.20;;
55465;SDS011;41329;41.594;23.810;2024-03-23T01:57:38;7.23;;;6.63;;
55465;SDS011;41329;41.594;23.810;2024-03-23T02:00:04;7.70;;;7.03;;
55465;SDS011;41329;41.594;23.810;2024-03-23T02:02:31;6.90;;;6.10;;
55465;SDS011;41329;41.594;23.810;2024-03-23T02:04:56;5.63;;;5.23;;
55465;SDS011;41329;41.594;23.810;2024-03-23T02:07:22;7.97;;;7.23;;
55465;SDS011;41329;41.594;23.810;2024-03-23T02:09:48;7.23;;;6.33;;
55465;SDS011;41329;41.594;23.810;2024-03-23T02:12:15;7.20;;;6.60;;
55465;SDS011;41329;41.594;23.810;2024-03-23T02:14:41;7.63;;;7.03;;
55465;SDS011;41329;41.594;23.810;2024-03-23T02:17:06;7.33;;;6.40;;
55465;SDS011;41329;41.594;23.810;2024-03-23T02:19:31;6.73;;;6.23;;
55465;SDS011;41329;41.594;23.810;2024-03-23T02:21:57;6.73;;;6.13;;
55465;SDS011;41329;41.594;23.810;2024-03-23T02:24:22;6.40;;;5.90;;
55465;SDS011;41329;41.594;23.810;2024-03-23T02:26:47;6.97;;;6.47;;
55465;SDS011;41329;41.594;23.810;2024-03-23T02:29:13;6.17;;;5.67;;
55465;SDS011;41329;41.594;23.810;2024-03-23T02:31:39;5.70;;;5.30;;
55465;SDS011;41329;41.594;23.810;2024-03-23T02:34:04;11.40;;;7.07;;
55465;SDS011;41329;41.594;23.810;2024-03-23T02:36:30;6.43;;;5.83;;
55465;SDS011;41329;41.594;23.810;2024-03-23T02:38:56;6.00;;;5.60;;
55465;SDS011;41329;41.594;23.810;2024-03-23T02:41:21;6.17;;;5.57;;
55465;SDS011;41329;41.594;23.810;2024-03-23T02:43:51;5.73;;;5.27;;
55465;SDS011;41329;41.594;23.810;2024-03-23T02:46:17;5.30;;;4.90;;
55465;SDS011;41329;41.594;23.810;2024-03-23T02:48:42;5.43;;;5.03;;
55465;SDS011;41329;41.594;23.810;2024-03-23T02:51:08;6.07;;;5.57;;
55465;SDS011;41329;41.594;23.810;2024-03-23T02:53:33;5.90;;;5.50;;
55465;SDS011;41329;41.594;23.810;2024-03-23T02:55:59;5.30;;;4.90;;
55465;SDS011;41329;41.594;23.810;2024-03-23T02:58:24;5.60;;;5.20;;
55465;SDS011;41329;41.594;23.810;2024-03-23T03:00:50;5.33;;;5.03;;
55465;SDS011;41329;41.594;23.810;2024-03-23T03:03:15;5.10;;;4.70;;
55465;SDS011;41329;41.594;23.810;2024-03-23T03:05:40;5.27;;;4.87;;
55465;SDS011;41329;41.594;23.810;2024-03-23T03:08:06;5.60;;;5.20;;
55465;SDS011;41329;41.594;23.810;2024-03-23T03:10:31;5.97;;;5.47;;
55465;SDS011;41329;41.594;23.810;2024-03-23T03:13:00;5.23;;;4.83;;
55465;SDS011;41329;41.594;23.810;2024-03-23T03:15:26;5.47;;;4.97;;
55465;SDS011;41329;41.594;23.810;2024-03-23T03:17:51;6.27;;;5.67;;
55465;SDS011;41329;41.594;23.810;2024-03-23T03:20:16;18.10;;;14.00;;
55465;SDS011;41329;41.594;23.810;2024-03-23T03:22:43;11.83;;;10.63;;
55465;SDS011;41329;41.594;23.810;2024-03-23T03:25:08;10.10;;;9.20;;
55465;SDS011;41329;41.594;23.810;2024-03-23T03:27:34;8.47;;;7.83;;
55465;SDS011;41329;41.594;23.810;2024-03-23T03:30:00;9.33;;;8.63;;
55465;SDS011;41329;41.594;23.810;2024-03-23T03:32:30;10.33;;;9.43;;
55465;SDS011;41329;41.594;23.810;2024-03-23T03:34:57;13.07;;;12.10;;
55465;SDS011;41329;41.594;23.810;2024-03-23T03:37:22;9.63;;;9.00;;
55465;SDS011;41329;41.594;23.810;2024-03-23T03:39:47;9.77;;;8.97;;
55465;SDS011;41329;41.594;23.810;2024-03-23T03:42:13;8.80;;;8.20;;
55465;SDS011;41329;41.594;23.810;2024-03-23T03:44:38;8.33;;;7.73;;
55465;SDS011;41329;41.594;23.810;2024-03-23T03:47:04;8.57;;;7.97;;
55465;SDS011;41329;41.594;23.810;2024-03-23T03:49:30;9.07;;;8.40;;
55465;SDS011;41329;41.594;23.810;2024-03-23T03:51:56;9.77;;;9.07;;
55465;SDS011;41329;41.594;23.810;2024-03-23T03:54:21;9.50;;;8.70;;
55465;SDS011;41329;41.594;23.810;2024-03-23T03:56:46;11.37;;;10.27;;
55465;SDS011;41329;41.594;23.810;2024-03-23T03:59:12;10.43;;;9.63;;
55465;SDS011;41329;41.594;23.810;2024-03-23T04:01:37;10.37;;;9.57;;
55465;SDS011;41329;41.594;23.810;2024-03-23T04:04:03;10.23;;;9.53;;
55465;SDS011;41329;41.594;23.810;2024-03-23T04:06:28;13.13;;;11.67;;
55465;SDS011;41329;41.594;23.810;2024-03-23T04:08:53;17.60;;;15.77;;
55465;SDS011;41329;41.594;23.810;2024-03-23T04:11:19;20.77;;;17.20;;
55465;SDS011;41329;41.594;23.810;2024-03-23T04:13:44;19.53;;;17.53;;
55465;SDS011;41329;41.594;23.810;2024-03-23T04:16:09;24.40;;;18.30;;
55465;SDS011;41329;41.594;23.810;2024-03-23T04:18:35;20.77;;;16.73;;
55465;SDS011;41329;41.594;23.810;2024-03-23T04:21:00;20.23;;;17.47;;
55465;SDS011;41329;41.594;23.810;2024-03-23T04:23:26;18.07;;;15.60;;
55465;SDS011;41329;41.594;23.810;2024-03-23T04:25:51;15.37;;;13.93;;
55465;SDS011;41329;41.594;23.810;2024-03-23T04:28:18;11.90;;;11.03;;
55465;SDS011;41329;41.594;23.810;2024-03-23T04:30:44;11.83;;;10.73;;
55465;SDS011;41329;41.594;23.810;2024-03-23T04:33:09;10.33;;;9.50;;
55465;SDS011;41329;41.594;23.810;2024-03-23T04:35:35;8.63;;;8.03;;
55465;SDS011;41329;41.594;23.810;2024-03-23T04:38:00;9.10;;;8.50;;
55465;SDS011;41329;41.594;23.810;2024-03-23T04:40:26;7.80;;;7.20;;
55465;SDS011;41329;41.594;23.810;2024-03-23T04:42:51;8.90;;;8.20;;
55465;SDS011;41329;41.594;23.810;2024-03-23T04:45:17;8.57;;;7.97;;
55465;SDS011;41329;41.594;23.810;2024-03-23T04:47:42;7.57;;;6.97;;
55465;SDS011;41329;41.594;23.810;2024-03-23T04:50:08;7.07;;;6.50;;
55465;SDS011;41329;41.594;23.810;2024-03-23T04:52:35;7.23;;;6.73;;
55465;SDS011;41329;41.594;23.810;2024-03-23T04:55:01;7.93;;;7.23;;
55465;SDS011;41329;41.594;23.810;2024-03-23T04:57:26;7.87;;;7.17;;
55465;SDS011;41329;41.594;23.810;2024-03-23T04:59:51;7.20;;;6.57;;
55465;SDS011;41329;41.594;23.810;2024-03-23T05:02:17;7.10;;;6.53;;
55465;SDS011;41329;41.594;23.810;2024-03-23T05:04:42;6.70;;;6.20;;
55465;SDS011;41329;41.594;23.810;2024-03-23T05:07:08;29.67;;;17.53;;
55465;SDS011;41329;41.594;23.810;2024-03-23T05:09:33;47.37;;;24.33;;
55465;SDS011;41329;41.594;23.810;2024-03-23T05:12:01;32.97;;;21.97;;
55465;SDS011;41329;41.594;23.810;2024-03-23T05:14:27;18.17;;;16.40;;
55465;SDS011;41329;41.594;23.810;2024-03-23T05:16:53;15.43;;;13.80;;
55465;SDS011;41329;41.594;23.810;2024-03-23T05:19:18;15.80;;;14.20;;
55465;SDS011;41329;41.594;23.810;2024-03-23T05:21:44;26.60;;;18.33;;
55465;SDS011;41329;41.594;23.810;2024-03-23T05:24:09;24.00;;;19.27;;
55465;SDS011;41329;41.594;23.810;2024-03-23T05:26:35;30.20;;;22.73;;
55465;SDS011;41329;41.594;23.810;2024-03-23T05:29:01;139.00;;;62.37;;
55465;SDS011;41329;41.594;23.810;2024-03-23T05:31:28;188.27;;;92.00;;
55465;SDS011;41329;41.594;23.810;2024-03-23T05:33:55;86.83;;;48.53;;
55465;SDS011;41329;41.594;23.810;2024-03-23T05:36:20;41.67;;;28.57;;
55465;SDS011;41329;41.594;23.810;2024-03-23T05:38:46;25.27;;;19.33;;
55465;SDS011;41329;41.594;23.810;2024-03-23T05:41:12;24.73;;;20.63;;
55465;SDS011;41329;41.594;23.810;2024-03-23T05:43:37;38.27;;;25.27;;
55465;SDS011;41329;41.594;23.810;2024-03-23T05:46:03;41.47;;;26.43;;
55465;SDS011;41329;41.594;23.810;2024-03-23T05:48:32;37.07;;;22.43;;
55465;SDS011;41329;41.594;23.810;2024-03-23T05:50:58;137.83;;;55.20;;
55465;SDS011;41329;41.594;23.810;2024-03-23T05:53:23;25.40;;;18.87;;
55465;SDS011;41329;41.594;23.810;2024-03-23T05:55:49;18.77;;;16.80;;
55465;SDS011;41329;41.594;23.810;2024-03-23T05:58:18;18.90;;;17.00;;
55465;SDS011;41329;41.594;23.810;2024-03-23T06:00:45;18.87;;;16.97;;
55465;SDS011;41329;41.594;23.810;2024-03-23T06:03:10;15.73;;;14.43;;
55465;SDS011;41329;41.594;23.810;2024-03-23T06:05:38;17.13;;;15.73;;
55465;SDS011;41329;41.594;23.810;2024-03-23T06:08:04;14.67;;;13.57;;
55465;SDS011;41329;41.594;23.810;2024-03-23T06:10:30;12.10;;;10.90;;
55465;SDS011;41329;41.594;23.810;2024-03-23T06:12:56;11.73;;;10.73;;
55465;SDS011;41329;41.594;23.810;2024-03-23T06:15:22;11.33;;;9.67;;
55465;SDS011;41329;41.594;23.810;2024-03-23T06:17:48;12.03;;;11.23;;
55465;SDS011;41329;41.594;23.810;2024-03-23T06:20:13;13.07;;;11.97;;
55465;SDS011;41329;41.594;23.810;2024-03-23T06:22:39;14.23;;;12.90;;
55465;SDS011;41329;41.594;23.810;2024-03-23T06:25:05;14.60;;;12.40;;
55465;SDS011;41329;41.594;23.810;2024-03-23T06:27:31;14.03;;;12.67;;
55465;SDS011;41329;41.594;23.810;2024-03-23T06:29:58;13.80;;;11.70;;
55465;SDS011;41329;41.594;23.810;2024-03-23T06:32:23;14.13;;;12.73;;
55465;SDS011;41329;41.594;23.810;2024-03-23T06:34:49;14.20;;;13.00;;
55465;SDS011;41329;41.594;23.810;2024-03-23T06:37:14;15.03;;;14.03;;
55465;SDS011;41329;41.594;23.810;2024-03-23T06:39:40;13.67;;;12.57;;
55465;SDS011;41329;41.594;23.810;2024-03-23T06:42:05;15.90;;;12.00;;
55465;SDS011;41329;41.594;23.810;2024-03-23T06:44:31;19.80;;;12.37;;
55465;SDS011;41329;41.594;23.810;2024-03-23T06:46:56;13.50;;;12.50;;
55465;SDS011;41329;41.594;23.810;2024-03-23T06:49:23;15.67;;;14.33;;
55465;SDS011;41329;41.594;23.810;2024-03-23T06:51:49;12.73;;;11.73;;
55465;SDS011;41329;41.594;23.810;2024-03-23T06:54:16;11.20;;;10.23;;
55465;SDS011;41329;41.594;23.810;2024-03-23T06:56:42;10.87;;;9.87;;
55465;SDS011;41329;41.594;23.810;2024-03-23T06:59:09;19.50;;;17.83;;
55465;SDS011;41329;41.594;23.810;2024-03-23T07:01:34;13.50;;;12.10;;
55465;SDS011;41329;41.594;23.810;2024-03-23T07:04:00;16.07;;;14.47;;
55465;SDS011;41329;41.594;23.810;2024-03-23T07:06:25;11.57;;;10.47;;
55465;SDS011;41329;41.594;23.810;2024-03-23T07:08:52;11.43;;;10.47;;
55465;SDS011;41329;41.594;23.810;2024-03-23T07:11:21;12.27;;;11.07;;
55465;SDS011;41329;41.594;23.810;2024-03-23T07:13:49;9.17;;;8.57;;
55465;SDS011;41329;41.594;23.810;2024-03-23T07:16:15;13.77;;;12.03;;
55465;SDS011;41329;41.594;23.810;2024-03-23T07:18:41;10.40;;;9.37;;
55465;SDS011;41329;41.594;23.810;2024-03-23T07:21:06;16.03;;;8.57;;
55465;SDS011;41329;41.594;23.810;2024-03-23T07:23:32;10.70;;;7.77;;
55465;SDS011;41329;41.594;23.810;2024-03-23T07:25:58;13.63;;;8.93;;
55465;SDS011;41329;41.594;23.810;2024-03-23T07:28:32;9.53;;;8.77;;
55465;SDS011;41329;41.594;23.810;2024-03-23T07:33:31;7.10;;;6.63;;
55465;SDS011;41329;41.594;23.810;2024-03-23T07:35:57;8.63;;;8.03;;
55465;SDS011;41329;41.594;23.810;2024-03-23T07:38:25;9.30;;;7.50;;
55465;SDS011;41329;41.594;23.810;2024-03-23T07:40:51;7.80;;;7.07;;
55465;SDS011;41329;41.594;23.810;2024-03-23T07:43:21;9.20;;;7.27;;
55465;SDS011;41329;41.594;23.810;2024-03-23T07:45:53;7.43;;;6.93;;
55465;SDS011;41329;41.594;23.810;2024-03-23T07:48:20;6.50;;;6.10;;
55465;SDS011;41329;41.594;23.810;2024-03-23T07:51:22;7.00;;;6.50;;
55465;SDS011;41329;41.594;23.810;2024-03-23T07:53:43;8.97;;;8.17;;
55465;SDS011;41329;41.594;23.810;2024-03-23T07:56:11;7.23;;;6.70;;
55465;SDS011;41329;41.594;23.810;2024-03-23T07:58:36;5.97;;;5.40;;
55465;SDS011;41329;41.594;23.810;2024-03-23T08:01:09;6.20;;;5.70;;
55465;SDS011;41329;41.594;23.810;2024-03-23T08:03:40;6.23;;;5.77;;
55465;SDS011;41329;41.594;23.810;2024-03-23T08:06:10;8.85;;;5.60;;
55465;SDS011;41329;41.594;23.810;2024-03-23T08:08:36;5.00;;;4.60;;
55465;SDS011;41329;41.594;23.810;2024-03-23T08:11:02;5.40;;;5.00;;
55465;SDS011;41329;41.594;23.810;2024-03-23T08:13:28;5.53;;;5.13;;
55465;SDS011;41329;41.594;23.810;2024-03-23T08:15:57;5.87;;;5.30;;
55465;SDS011;41329;41.594;23.810;2024-03-23T08:18:23;6.23;;;5.73;;
55465;SDS011;41329;41.594;23.810;2024-03-23T08:20:56;8.60;;;6.13;;
55465;SDS011;41329;41.594;23.810;2024-03-23T08:23:22;8.97;;;5.23;;
55465;SDS011;41329;41.594;23.810;2024-03-23T08:25:48;6.47;;;5.97;;
55465;SDS011;41329;41.594;23.810;2024-03-23T08:28:13;5.77;;;5.30;;
55465;SDS011;41329;41.594;23.810;2024-03-23T08:30:39;10.70;;;5.13;;
55465;SDS011;41329;41.594;23.810;2024-03-23T08:33:04;6.40;;;5.80;;
55465;SDS011;41329;41.594;23.810;2024-03-23T08:35:29;7.37;;;5.40;;
55465;SDS011;41329;41.594;23.810;2024-03-23T08:37:55;7.70;;;5.60;;
55465;SDS011;41329;41.594;23.810;2024-03-23T08:40:20;6.47;;;6.07;;
55465;SDS011;41329;41.594;23.810;2024-03-23T08:42:46;6.37;;;5.77;;
55465;SDS011;41329;41.594;23.810;2024-03-23T08:45:11;6.87;;;5.83;;
55465;SDS011;41329;41.594;23.810;2024-03-23T08:47:36;6.77;;;5.43;;
55465;SDS011;41329;41.594;23.810;2024-03-23T08:50:02;5.97;;;5.57;;
55465;SDS011;41329;41.594;23.810;2024-03-23T08:52:27;5.77;;;5.37;;
55465;SDS011;41329;41.594;23.810;2024-03-23T08:54:54;5.80;;;5.13;;
55465;SDS011;41329;41.594;23.810;2024-03-23T08:57:21;7.97;;;5.27;;
55465;SDS011;41329;41.594;23.810;2024-03-23T08:59:46;6.73;;;5.73;;
55465;SDS011;41329;41.594;23.810;2024-03-23T09:02:12;7.93;;;5.80;;
55465;SDS011;41329;41.594;23.810;2024-03-23T09:04:37;5.97;;;4.97;;
55465;SDS011;41329;41.594;23.810;2024-03-23T09:07:02;7.27;;;6.17;;
55465;SDS011;41329;41.594;23.810;2024-03-23T09:09:28;6.13;;;5.60;;
55465;SDS011;41329;41.594;23.810;2024-03-23T09:11:53;5.93;;;5.47;;
55465;SDS011;41329;41.594;23.810;2024-03-23T09:14:19;5.20;;;4.73;;
55465;SDS011;41329;41.594;23.810;2024-03-23T09:16:44;6.10;;;5.60;;
55465;SDS011;41329;41.594;23.810;2024-03-23T09:19:09;9.63;;;5.50;;
55465;SDS011;41329;41.594;23.810;2024-03-23T09:21:35;5.10;;;4.67;;
55465;SDS011;41329;41.594;23.810;2024-03-23T09:24:00;6.17;;;5.67;;
55465;SDS011;41329;41.594;23.810;2024-03-23T09:26:26;5.90;;;5.40;;
55465;SDS011;41329;41.594;23.810;2024-03-23T09:28:51;6.33;;;5.30;;
55465;SDS011;41329;41.594;23.810;2024-03-23T09:31:17;7.65;;;6.95;;
55465;SDS011;41329;41.594;23.810;2024-03-23T09:33:42;6.03;;;4.95;;
55465;SDS011;41329;41.594;23.810;2024-03-23T09:36:08;5.85;;;5.32;;
55465;SDS011;41329;41.594;23.810;2024-03-23T09:38:34;5.85;;;5.30;;
55465;SDS011;41329;41.594;23.810;2024-03-23T09:41:00;7.25;;;5.40;;
55465;SDS011;41329;41.594;23.810;2024-03-23T09:43:25;7.13;;;6.43;;
55465;SDS011;41329;41.594;23.810;2024-03-23T09:45:51;6.93;;;6.43;;
55465;SDS011;41329;41.594;23.810;2024-03-23T09:48:17;5.57;;;5.17;;
55465;SDS011;41329;41.594;23.810;2024-03-23T09:50:43;4.93;;;4.55;;
55465;SDS011;41329;41.594;23.810;2024-03-23T09:53:11;5.38;;;5.05;;
55465;SDS011;41329;41.594;23.810;2024-03-23T09:55:37;5.50;;;5.10;;
55465;SDS011;41329;41.594;23.810;2024-03-23T09:58:04;5.68;;;5.22;;
55465;SDS011;41329;41.594;23.810;2024-03-23T10:00:30;4.75;;;4.35;;
55465;SDS011;41329;41.594;23.810;2024-03-23T10:02:57;8.25;;;4.22;;
55465;SDS011;41329;41.594;23.810;2024-03-23T10:05:26;4.35;;;4.00;;
55465;SDS011;41329;41.594;23.810;2024-03-23T10:07:53;7.20;;;4.15;;
55465;SDS011;41329;41.594;23.810;2024-03-23T10:10:18;3.03;;;2.55;;
55465;SDS011;41329;41.594;23.810;2024-03-23T10:12:46;3.33;;;3.05;;
55465;SDS011;41329;41.594;23.810;2024-03-23T10:15:18;4.70;;;3.08;;
55465;SDS011;41329;41.594;23.810;2024-03-23T10:17:46;3.72;;;3.42;;
55465;SDS011;41329;41.594;23.810;2024-03-23T10:20:12;4.03;;;3.72;;
55465;SDS011;41329;41.594;23.810;2024-03-23T10:22:37;3.80;;;3.50;;
55465;SDS011;41329;41.594;23.810;2024-03-23T10:25:09;3.42;;;3.13;;
55465;SDS011;41329;41.594;23.810;2024-03-23T10:27:35;3.50;;;3.20;;
55465;SDS011;41329;41.594;23.810;2024-03-23T10:30:08;3.42;;;3.22;;
55465;SDS011;41329;41.594;23.810;2024-03-23T10:32:34;2.38;;;2.28;;
55465;SDS011;41329;41.594;23.810;2024-03-23T10:35:19;3.20;;;3.00;;
55465;SDS011;41329;41.594;23.810;2024-03-23T10:37:48;2.60;;;2.40;;
55465;SDS011;41329;41.594;23.810;2024-03-23T10:40:16;2.35;;;2.15;;
55465;SDS011;41329;41.594;23.810;2024-03-23T10:42:43;2.42;;;2.22;;
55465;SDS011;41329;41.594;23.810;2024-03-23T10:45:09;2.88;;;2.45;;
55465;SDS011;41329;41.594;23.810;2024-03-23T10:47:35;2.15;;;1.92;;
55465;SDS011;41329;41.594;23.810;2024-03-23T10:50:02;2.47;;;2.28;;
55465;SDS011;41329;41.594;23.810;2024-03-23T10:52:28;2.30;;;2.20;;
55465;SDS011;41329;41.594;23.810;2024-03-23T10:54:54;2.00;;;1.80;;
55465;SDS011;41329;41.594;23.810;2024-03-23T10:57:23;3.25;;;2.58;;
55465;SDS011;41329;41.594;23.810;2024-03-23T10:59:54;1.90;;;1.80;;
55465;SDS011;41329;41.594;23.810;2024-03-23T11:02:21;2.75;;;2.40;;
55465;SDS011;41329;41.594;23.810;2024-03-23T11:04:47;2.42;;;2.13;;
55465;SDS011;41329;41.594;23.810;2024-03-23T11:07:31;2.05;;;1.95;;
55465;SDS011;41329;41.594;23.810;2024-03-23T11:09:57;2.20;;;2.10;;
55465;SDS011;41329;41.594;23.810;2024-03-23T11:14:49;2.80;;;2.60;;
55465;SDS011;41329;41.594;23.810;2024-03-23T11:17:21;2.42;;;2.22;;
55465;SDS011;41329;41.594;23.810;2024-03-23T11:20:01;4.03;;;3.65;;
55465;SDS011;41329;41.594;23.810;2024-03-23T11:27:47;2.25;;;1.92;;
55465;SDS011;41329;41.594;23.810;2024-03-23T11:30:15;1.95;;;1.83;;
55465;SDS011;41329;41.594;23.810;2024-03-23T11:32:43;1.95;;;1.75;;
55465;SDS011;41329;41.594;23.810;2024-03-23T11:35:09;2.25;;;2.05;;
55465;SDS011;41329;41.594;23.810;2024-03-23T11:37:35;2.30;;;1.73;;
55465;SDS011;41329;41.594;23.810;2024-03-23T11:40:16;1.60;;;1.50;;
55465;SDS011;41329;41.594;23.810;2024-03-23T11:42:43;1.73;;;1.63;;
55465;SDS011;41329;41.594;23.810;2024-03-23T11:45:09;1.88;;;1.60;;
55465;SDS011;41329;41.594;23.810;2024-03-23T11:47:34;1.80;;;1.60;;
55465;SDS011;41329;41.594;23.810;2024-03-23T11:50:00;5.65;;;1.85;;
55465;SDS011;41329;41.594;23.810;2024-03-23T11:52:25;2.25;;;2.10;;
55465;SDS011;41329;41.594;23.810;2024-03-23T11:54:50;2.13;;;1.90;;
55465;SDS011;41329;41.594;23.810;2024-03-23T11:57:16;1.83;;;1.60;;
55465;SDS011;41329;41.594;23.810;2024-03-23T11:59:41;1.80;;;1.70;;
55465;SDS011;41329;41.594;23.810;2024-03-23T12:04:33;1.98;;;1.85;;
55465;SDS011;41329;41.594;23.810;2024-03-23T12:07:14;1.85;;;1.65;;
55465;SDS011;41329;41.594;23.810;2024-03-23T12:09:44;1.90;;;1.80;;
55465;SDS011;41329;41.594;23.810;2024-03-23T12:12:14;2.35;;;2.15;;
55465;SDS011;41329;41.594;23.810;2024-03-23T12:14:44;2.15;;;1.70;;
55465;SDS011;41329;41.594;23.810;2024-03-23T12:17:25;2.88;;;2.60;;
55465;SDS011;41329;41.594;23.810;2024-03-23T12:19:51;2.83;;;2.63;;
55465;SDS011;41329;41.594;23.810;2024-03-23T12:22:20;2.22;;;2.13;;
55465;SDS011;41329;41.594;23.810;2024-03-23T12:24:45;5.93;;;5.43;;
55465;SDS011;41329;41.594;23.810;2024-03-23T12:27:11;2.58;;;2.38;;
55465;SDS011;41329;41.594;23.810;2024-03-23T12:29:36;4.70;;;4.32;;
55465;SDS011;41329;41.594;23.810;2024-03-23T12:32:04;2.50;;;2.25;;
55465;SDS011;41329;41.594;23.810;2024-03-23T12:34:29;2.50;;;2.30;;
55465;SDS011;41329;41.594;23.810;2024-03-23T12:36:55;2.58;;;2.38;;
55465;SDS011;41329;41.594;23.810;2024-03-23T12:39:21;2.65;;;2.42;;
55465;SDS011;41329;41.594;23.810;2024-03-23T12:41:47;2.40;;;2.20;;
55465;SDS011;41329;41.594;23.810;2024-03-23T12:44:13;2.92;;;2.72;;
55465;SDS011;41329;41.594;23.810;2024-03-23T12:46:39;2.45;;;2.17;;
55465;SDS011;41329;41.594;23.810;2024-03-23T12:49:04;3.33;;;2.25;;
55465;SDS011;41329;41.594;23.810;2024-03-23T12:51:31;2.95;;;2.03;;
55465;SDS011;41329;41.594;23.810;2024-03-23T12:53:57;2.25;;;1.98;;
55465;SDS011;41329;41.594;23.810;2024-03-23T12:56:22;2.05;;;1.95;;
55465;SDS011;41329;41.594;23.810;2024-03-23T12:58:48;2.78;;;2.05;;
55465;SDS011;41329;41.594;23.810;2024-03-23T13:01:16;2.38;;;2.17;;
55465;SDS011;41329;41.594;23.810;2024-03-23T13:03:46;3.17;;;2.58;;
55465;SDS011;41329;41.594;23.810;2024-03-23T13:06:12;2.42;;;2.22;;
55465;SDS011;41329;41.594;23.810;2024-03-23T13:08:38;6.03;;;2.78;;
55465;SDS011;41329;41.594;23.810;2024-03-23T13:11:05;3.22;;;2.33;;
55465;SDS011;41329;41.594;23.810;2024-03-23T13:13:30;2.45;;;2.13;;
55465;SDS011;41329;41.594;23.810;2024-03-23T13:15:56;2.45;;;2.25;;
55465;SDS011;41329;41.594;23.810;2024-03-23T13:18:22;3.15;;;2.50;;
55465;SDS011;41329;41.594;23.810;2024-03-23T13:20:47;2.40;;;2.30;;
55465;SDS011;41329;41.594;23.810;2024-03-23T13:23:13;2.45;;;2.35;;
55465;SDS011;41329;41.594;23.810;2024-03-23T13:25:38;2.50;;;2.33;;
55465;SDS011;41329;41.594;23.810;2024-03-23T13:28:04;2.70;;;2.40;;
55465;SDS011;41329;41.594;23.810;2024-03-23T13:30:29;3.00;;;2.53;;
55465;SDS011;41329;41.594;23.810;2024-03-23T13:32:55;2.80;;;2.25;;
55465;SDS011;41329;41.594;23.810;2024-03-23T13:35:20;2.42;;;2.33;;
55465;SDS011;41329;41.594;23.810;2024-03-23T13:37:46;2.80;;;2.60;;
55465;SDS011;41329;41.594;23.810;2024-03-23T13:40:12;2.70;;;2.50;;
55465;SDS011;41329;41.594;23.810;2024-03-23T13:42:37;2.53;;;2.33;;
55465;SDS011;41329;41.594;23.810;2024-03-23T13:45:03;3.10;;;2.90;;
55465;SDS011;41329;41.594;23.810;2024-03-23T13:47:29;3.00;;;2.72;;
55465;SDS011;41329;41.594;23.810;2024-03-23T13:49:54;2.90;;;2.70;;
55465;SDS011;41329;41.594;23.810;2024-03-23T13:52:21;2.67;;;2.47;;
55465;SDS011;41329;41.594;23.810;2024-03-23T13:54:48;2.53;;;2.33;;
55465;SDS011;41329;41.594;23.810;2024-03-23T13:57:13;5.80;;;3.55;;
55465;SDS011;41329;41.594;23.810;2024-03-23T13:59:39;2.70;;;2.50;;
55465;SDS011;41329;41.594;23.810;2024-03-23T14:02:05;2.72;;;2.53;;
55465;SDS011;41329;41.594;23.810;2024-03-23T14:04:30;2.58;;;1.90;;
55465;SDS011;41329;41.594;23.810;2024-03-23T14:06:55;2.22;;;1.80;;
55465;SDS011;41329;41.594;23.810;2024-03-23T14:09:21;2.78;;;2.58;;
55465;SDS011;41329;41.594;23.810;2024-03-23T14:11:48;3.45;;;2.58;;
55465;SDS011;41329;41.594;23.810;2024-03-23T14:14:14;2.78;;;2.55;;
55465;SDS011;41329;41.594;23.810;2024-03-23T14:16:43;2.53;;;2.33;;
55465;SDS011;41329;41.594;23.810;2024-03-23T14:19:09;4.18;;;1.92;;
55465;SDS011;41329;41.594;23.810;2024-03-23T14:21:34;2.45;;;2.25;;
55465;SDS011;41329;41.594;23.810;2024-03-23T14:24:00;3.40;;;2.78;;
55465;SDS011;41329;41.594;23.810;2024-03-23T14:29:48;3.13;;;2.25;;
55465;SDS011;41329;41.594;23.810;2024-03-23T14:32:14;3.13;;;2.50;;
55465;SDS011;41329;41.594;23.810;2024-03-23T14:34:40;3.35;;;3.15;;
55465;SDS011;41329;41.594;23.810;2024-03-23T14:37:05;3.10;;;2.75;;
55465;SDS011;41329;41.594;23.810;2024-03-23T14:39:31;25.38;;;5.32;;
55465;SDS011;41329;41.594;23.810;2024-03-23T14:41:59;18.77;;;5.15;;
55465;SDS011;41329;41.594;23.810;2024-03-23T14:44:28;3.55;;;2.47;;
55465;SDS011;41329;41.594;23.810;2024-03-23T14:46:53;5.50;;;2.28;;
55465;SDS011;41329;41.594;23.810;2024-03-23T14:49:20;7.45;;;2.60;;
55465;SDS011;41329;41.594;23.810;2024-03-23T14:51:45;6.43;;;2.40;;
55465;SDS011;41329;41.594;23.810;2024-03-23T14:54:11;7.70;;;2.88;;
55465;SDS011;41329;41.594;23.810;2024-03-23T14:56:38;3.38;;;2.45;;
55465;SDS011;41329;41.594;23.810;2024-03-23T14:59:03;3.53;;;1.90;;
55465;SDS011;41329;41.594;23.810;2024-03-23T15:01:29;2.45;;;2.25;;
55465;SDS011;41329;41.594;23.810;2024-03-23T15:03:54;2.10;;;1.92;;
55465;SDS011;41329;41.594;23.810;2024-03-23T15:06:19;2.08;;;1.98;;
55465;SDS011;41329;41.594;23.810;2024-03-23T15:08:45;4.43;;;3.65;;
55465;SDS011;41329;41.594;23.810;2024-03-23T15:11:10;8.85;;;3.33;;
55465;SDS011;41329;41.594;23.810;2024-03-23T15:13:36;7.07;;;3.58;;
55465;SDS011;41329;41.594;23.810;2024-03-23T15:16:02;2.85;;;2.55;;
55465;SDS011;41329;41.594;23.810;2024-03-23T15:18:32;6.10;;;3.88;;
55465;SDS011;41329;41.594;23.810;2024-03-23T15:20:58;4.38;;;3.97;;
55465;SDS011;41329;41.594;23.810;2024-03-23T15:23:27;4.18;;;3.88;;
55465;SDS011;41329;41.594;23.810;2024-03-23T15:25:54;6.22;;;4.10;;
55465;SDS011;41329;41.594;23.810;2024-03-23T15:28:27;3.70;;;3.45;;
55465;SDS011;41329;41.594;23.810;2024-03-23T15:31:03;5.50;;;4.25;;
55465;SDS011;41329;41.594;23.810;2024-03-23T15:33:29;5.13;;;4.72;;